Time,TemperatureF,DewpointF,PressureIn,WindDirection,WindDirectionDegrees,WindSpeedMPH,WindSpeedGustMPH,Humidity,HourlyPrecipIn,Conditions,Clouds,dailyrainin,SoftwareType,DateUTC
2013-10-01 00:00:00,64.6,46.6,29.94,WNW,288,7.0,24.0,52,0.00,,---,0.00,VWS V14.01,2013-10-01 07:00:00,
2013-10-01 00:01:00,64.2,46.2,29.93,West,276,10.0,16.0,52,0.00,,---,0.00,VWS V14.01,2013-10-01 07:01:00,
2013-10-01 00:06:00,64.0,46.0,29.94,NNW,335,9.0,19.0,52,0.00,,---,0.00,VWS V14.01,2013-10-01 07:06:00,
2013-10-01 00:11:00,63.9,44.9,29.94,West,269,14.0,19.0,50,0.00,,---,0.00,VWS V14.01,2013-10-01 07:11:00,
2013-10-01 00:16:00,63.9,45.4,29.93,West,280,11.0,19.0,51,0.00,,---,0.00,VWS V14.01,2013-10-01 07:16:00,
2013-10-01 00:21:00,64.0,45.5,29.93,West,260,12.0,20.0,51,0.00,,---,0.00,VWS V14.01,2013-10-01 07:21:00,
2013-10-01 00:26:00,64.2,44.1,29.93,West,277,13.0,21.0,48,0.00,,---,0.00,VWS V14.01,2013-10-01 07:26:00,
2013-10-01 00:30:00,64.2,45.2,29.93,WNW,287,8.0,21.0,50,0.00,,---,0.00,VWS V14.01,2013-10-01 07:30:00,
2013-10-01 00:31:00,64.0,45.5,29.93,West,270,7.0,20.0,51,0.00,,---,0.00,VWS V14.01,2013-10-01 07:31:00,
2013-10-01 00:36:00,64.0,45.5,29.93,SW,228,13.0,20.0,51,0.00,,---,0.00,VWS V14.01,2013-10-01 07:36:00,
2013-10-01 00:41:00,63.9,46.0,29.93,WNW,285,8.0,20.0,52,0.00,,---,0.00,VWS V14.01,2013-10-01 07:41:00,
2013-10-01 00:46:00,63.8,45.9,29.93,WNW,283,3.0,20.0,52,0.00,,---,0.00,VWS V14.01,2013-10-01 07:46:00,
2013-10-01 00:51:00,63.7,46.3,29.94,West,277,11.0,20.0,53,0.00,,---,0.00,VWS V14.01,2013-10-01 07:51:00,
2013-10-01 00:56:00,63.6,46.2,29.93,West,269,6.0,20.0,53,0.00,,---,0.00,VWS V14.01,2013-10-01 07:56:00,
2013-10-01 01:00:00,63.6,45.7,29.93,West,270,5.0,20.0,52,0.00,,---,0.00,VWS V14.01,2013-10-01 08:00:00,
2013-10-01 01:01:00,63.6,46.7,29.94,SW,232,8.0,15.0,54,0.00,,---,0.00,VWS V14.01,2013-10-01 08:01:00,
2013-10-01 01:06:00,63.5,46.1,29.93,West,269,11.0,18.0,53,0.00,,---,0.00,VWS V14.01,2013-10-01 08:06:00,
2013-10-01 01:11:00,63.6,46.7,29.94,West,262,13.0,18.0,54,0.00,,---,0.00,VWS V14.01,2013-10-01 08:11:00,
2013-10-01 01:16:00,63.6,46.2,29.93,WSW,245,13.0,18.0,53,0.00,,---,0.00,VWS V14.01,2013-10-01 08:16:00,
2013-10-01 01:21:00,63.4,46.0,29.94,WSW,250,13.0,18.0,53,0.00,,---,0.00,VWS V14.01,2013-10-01 08:21:00,
2013-10-01 01:26:00,63.4,46.5,29.93,WSW,237,9.0,18.0,54,0.00,,---,0.00,VWS V14.01,2013-10-01 08:26:00,
2013-10-01 01:30:00,63.4,46.5,29.93,WSW,252,17.0,18.0,54,0.00,,---,0.00,VWS V14.01,2013-10-01 08:30:00,
2013-10-01 01:31:00,63.5,46.1,29.94,WNW,287,10.0,17.0,53,0.00,,---,0.00,VWS V14.01,2013-10-01 08:31:00,
2013-10-01 01:36:00,63.3,45.4,29.94,SSW,194,7.0,17.0,52,0.00,,---,0.00,VWS V14.01,2013-10-01 08:36:00,
2013-10-01 01:41:00,63.4,46.0,29.94,SW,229,12.0,17.0,53,0.00,,---,0.00,VWS V14.01,2013-10-01 08:41:00,
2013-10-01 01:46:00,63.4,44.5,29.94,ESE,110,5.0,17.0,50,0.00,,---,0.00,VWS V14.01,2013-10-01 08:46:00,
2013-10-01 01:51:00,63.5,45.6,29.94,WSW,256,4.0,17.0,52,0.00,,---,0.00,VWS V14.01,2013-10-01 08:51:00,
2013-10-01 01:56:00,63.5,45.6,29.94,WNW,284,15.0,19.0,52,0.00,,---,0.00,VWS V14.01,2013-10-01 08:56:00,
2013-10-01 02:00:00,63.6,44.6,29.94,ESE,115,7.0,19.0,50,0.00,,---,0.00,VWS V14.01,2013-10-01 09:00:00,
2013-10-01 02:01:00,63.9,44.9,29.94,North,354,7.0,18.0,50,0.00,,---,0.00,VWS V14.01,2013-10-01 09:01:00,
2013-10-01 02:06:00,63.8,46.4,29.94,WNW,291,14.0,18.0,53,0.00,,---,0.00,VWS V14.01,2013-10-01 09:06:00,
2013-10-01 02:11:00,63.6,46.7,29.94,WNW,293,6.0,18.0,54,0.00,,---,0.00,VWS V14.01,2013-10-01 09:11:00,
2013-10-01 02:16:00,63.6,45.7,29.94,WNW,302,8.0,18.0,52,0.00,,---,0.00,VWS V14.01,2013-10-01 09:16:00,
2013-10-01 02:21:00,63.4,46.5,29.94,West,269,6.0,18.0,54,0.00,,---,0.00,VWS V14.01,2013-10-01 09:21:00,
2013-10-01 02:26:00,63.3,46.9,29.94,WSW,243,9.0,18.0,55,0.00,,---,0.00,VWS V14.01,2013-10-01 09:26:00,
2013-10-01 02:30:00,63.3,46.4,29.94,West,276,10.0,18.0,54,0.00,,---,0.00,VWS V14.01,2013-10-01 09:30:00,
2013-10-01 02:32:00,63.3,46.4,29.94,SSW,195,7.0,14.0,54,0.00,,---,0.00,VWS V14.01,2013-10-01 09:32:00,
2013-10-01 02:37:00,63.3,46.4,29.94,WNW,286,9.0,14.0,54,0.00,,---,0.00,VWS V14.01,2013-10-01 09:37:00,
2013-10-01 02:42:00,63.2,46.8,29.94,West,274,8.0,14.0,55,0.00,,---,0.00,VWS V14.01,2013-10-01 09:42:00,
2013-10-01 02:47:00,63.0,45.6,29.93,WNW,296,10.0,15.0,53,0.00,,---,0.00,VWS V14.01,2013-10-01 09:47:00,
2013-10-01 02:52:00,63.0,46.6,29.93,West,274,8.0,15.0,55,0.00,,---,0.00,VWS V14.01,2013-10-01 09:52:00,
2013-10-01 02:57:00,62.8,46.9,29.93,WNW,302,11.0,16.0,56,0.00,,---,0.00,VWS V14.01,2013-10-01 09:57:00,
2013-10-01 03:00:00,62.9,46.5,29.93,WNW,302,6.0,16.0,55,0.00,,---,0.00,VWS V14.01,2013-10-01 10:00:00,
2013-10-01 03:02:00,62.9,46.5,29.93,WSW,247,10.0,13.0,55,0.00,,---,0.00,VWS V14.01,2013-10-01 10:02:00,
2013-10-01 03:07:00,62.6,47.2,29.93,SW,228,7.0,14.0,57,0.00,,---,0.00,VWS V14.01,2013-10-01 10:07:00,
2013-10-01 03:12:00,62.6,46.7,29.93,WNW,295,9.0,16.0,56,0.00,,---,0.00,VWS V14.01,2013-10-01 10:12:00,
2013-10-01 03:17:00,62.6,47.2,29.93,WNW,288,10.0,16.0,57,0.00,,---,0.00,VWS V14.01,2013-10-01 10:17:00,
2013-10-01 03:22:00,62.4,47.0,29.92,NW,308,9.0,17.0,57,0.00,,---,0.00,VWS V14.01,2013-10-01 10:22:00,
2013-10-01 03:27:00,62.3,46.9,29.92,SW,218,7.0,17.0,57,0.00,,---,0.00,VWS V14.01,2013-10-01 10:27:00,
2013-10-01 03:30:00,62.3,47.3,29.92,NNW,342,4.0,17.0,58,0.00,,---,0.00,VWS V14.01,2013-10-01 10:30:00,
2013-10-01 03:32:00,62.2,47.3,29.92,WNW,291,13.0,15.0,58,0.00,,---,0.00,VWS V14.01,2013-10-01 10:32:00,
2013-10-01 03:37:00,62.2,47.3,29.92,West,259,9.0,15.0,58,0.00,,---,0.00,VWS V14.01,2013-10-01 10:37:00,
2013-10-01 03:42:00,62.1,47.6,29.92,WNW,286,4.0,15.0,59,0.00,,---,0.00,VWS V14.01,2013-10-01 10:42:00,
2013-10-01 03:47:00,62.1,47.2,29.93,WSW,243,8.0,15.0,58,0.00,,---,0.00,VWS V14.01,2013-10-01 10:47:00,
2013-10-01 03:52:00,62.1,47.2,29.92,WSW,243,10.0,16.0,58,0.00,,---,0.00,VWS V14.01,2013-10-01 10:52:00,
2013-10-01 03:57:00,62.0,47.1,29.93,West,281,11.0,16.0,58,0.00,,---,0.00,VWS V14.01,2013-10-01 10:57:00,
2013-10-01 04:00:00,62.1,47.2,29.93,WNW,285,12.0,16.0,58,0.00,,---,0.00,VWS V14.01,2013-10-01 11:00:00,
2013-10-01 04:02:00,61.8,47.8,29.93,WSW,257,10.0,14.0,60,0.00,,---,0.00,VWS V14.01,2013-10-01 11:02:00,
2013-10-01 04:07:00,61.8,47.8,29.92,West,271,10.0,17.0,60,0.00,,---,0.00,VWS V14.01,2013-10-01 11:07:00,
2013-10-01 04:17:00,61.6,47.6,29.93,NW,308,8.0,17.0,60,0.00,,---,0.00,VWS V14.01,2013-10-01 11:17:00,
2013-10-01 04:22:00,61.6,47.6,29.93,West,266,8.0,17.0,60,0.00,,---,0.00,VWS V14.01,2013-10-01 11:22:00,
2013-10-01 04:30:00,61.6,47.6,29.93,WNW,284,9.0,17.0,60,0.00,,---,0.00,VWS V14.01,2013-10-01 11:30:00,
2013-10-01 04:32:00,61.4,47.8,29.93,SW,226,5.0,12.0,61,0.00,,---,0.00,VWS V14.01,2013-10-01 11:32:00,
2013-10-01 04:37:00,61.3,47.8,29.93,WSW,249,11.0,14.0,61,0.00,,---,0.00,VWS V14.01,2013-10-01 11:37:00,
2013-10-01 04:42:00,61.2,47.7,29.93,WNW,291,6.0,14.0,61,0.00,,---,0.00,VWS V14.01,2013-10-01 11:42:00,
2013-10-01 04:47:00,61.2,47.7,29.93,West,273,7.0,15.0,61,0.00,,---,0.00,VWS V14.01,2013-10-01 11:47:00,
2013-10-01 04:52:00,61.1,48.0,29.93,West,277,5.0,15.0,62,0.00,,---,0.00,VWS V14.01,2013-10-01 11:52:00,
2013-10-01 04:57:00,60.9,47.8,29.93,SW,228,6.0,15.0,62,0.00,,---,0.00,VWS V14.01,2013-10-01 11:57:00,
2013-10-01 05:00:00,60.9,47.8,29.93,West,277,8.0,15.0,62,0.00,,---,0.00,VWS V14.01,2013-10-01 12:00:00,
2013-10-01 05:02:00,60.8,48.1,29.93,SW,224,8.0,14.0,63,0.00,,---,0.00,VWS V14.01,2013-10-01 12:02:00,
2013-10-01 05:07:00,60.7,48.0,29.93,WNW,293,9.0,14.0,63,0.00,,---,0.00,VWS V14.01,2013-10-01 12:07:00,
2013-10-01 05:12:00,60.8,48.1,29.93,West,269,4.0,14.0,63,0.00,,---,0.00,VWS V14.01,2013-10-01 12:12:00,
2013-10-01 05:17:00,60.6,48.0,29.93,West,278,5.0,14.0,63,0.00,,---,0.00,VWS V14.01,2013-10-01 12:17:00,
2013-10-01 05:22:00,60.5,47.9,29.93,NW,322,5.0,14.0,63,0.00,,---,0.00,VWS V14.01,2013-10-01 12:22:00,
2013-10-01 05:27:00,60.7,47.6,29.93,WNW,289,6.0,15.0,62,0.00,,---,0.00,VWS V14.01,2013-10-01 12:27:00,
2013-10-01 05:30:00,60.7,48.0,29.93,West,262,6.0,15.0,63,0.00,,---,0.00,VWS V14.01,2013-10-01 12:30:00,
2013-10-01 05:32:00,60.6,48.0,29.93,NNW,338,4.0,13.0,63,0.00,,---,0.00,VWS V14.01,2013-10-01 12:32:00,
2013-10-01 05:37:00,60.5,47.9,29.94,NW,311,6.0,16.0,63,0.00,,---,0.00,VWS V14.01,2013-10-01 12:37:00,
2013-10-01 05:42:00,60.3,47.7,29.93,SW,214,5.0,16.0,63,0.00,,---,0.00,VWS V14.01,2013-10-01 12:42:00,
2013-10-01 05:47:00,60.1,47.9,29.94,West,264,9.0,16.0,64,0.00,,---,0.00,VWS V14.01,2013-10-01 12:47:00,
2013-10-01 05:52:00,60.0,47.8,29.94,SW,233,3.0,16.0,64,0.00,,---,0.00,VWS V14.01,2013-10-01 12:52:00,
2013-10-01 05:57:00,59.8,48.0,29.94,WSW,243,13.0,16.0,65,0.00,,---,0.00,VWS V14.01,2013-10-01 12:57:00,
2013-10-01 06:00:00,59.8,48.0,29.94,West,266,9.0,16.0,65,0.00,,---,0.00,VWS V14.01,2013-10-01 13:00:00,
2013-10-01 06:03:00,59.5,48.2,29.94,West,273,9.0,14.0,66,0.00,,---,0.00,VWS V14.01,2013-10-01 13:03:00,
2013-10-01 06:08:00,59.4,48.0,29.94,West,271,6.0,14.0,66,0.00,,---,0.00,VWS V14.01,2013-10-01 13:08:00,
2013-10-01 06:13:00,59.2,48.3,29.94,WNW,283,6.0,14.0,67,0.00,,---,0.00,VWS V14.01,2013-10-01 13:13:00,
2013-10-01 06:18:00,59.2,48.3,29.94,WNW,287,6.0,14.0,67,0.00,,---,0.00,VWS V14.01,2013-10-01 13:18:00,
2013-10-01 06:23:00,59.1,48.6,29.94,WNW,283,10.0,14.0,68,0.00,,---,0.00,VWS V14.01,2013-10-01 13:23:00,
2013-10-01 06:28:00,59.1,48.6,29.94,SW,235,7.0,15.0,68,0.00,,---,0.00,VWS V14.01,2013-10-01 13:28:00,
2013-10-01 06:30:00,59.1,48.6,29.94,WSW,257,6.0,16.0,68,0.00,,---,0.00,VWS V14.01,2013-10-01 13:30:00,
2013-10-01 06:33:00,59.5,48.9,29.94,SW,235,5.0,18.0,68,0.00,,---,0.00,VWS V14.01,2013-10-01 13:33:00,
2013-10-01 06:38:00,59.6,48.6,29.94,WNW,295,8.0,19.0,67,0.00,,---,0.00,VWS V14.01,2013-10-01 13:38:00,
2013-10-01 06:43:00,59.4,48.8,29.94,West,266,11.0,19.0,68,0.00,,---,0.00,VWS V14.01,2013-10-01 13:43:00,
2013-10-01 06:48:00,59.2,48.7,29.94,WSW,250,7.0,19.0,68,0.00,,---,0.00,VWS V14.01,2013-10-01 13:48:00,
2013-10-01 06:53:00,59.0,48.9,29.95,West,276,12.0,19.0,69,0.00,,---,0.00,VWS V14.01,2013-10-01 13:53:00,
2013-10-01 06:58:00,59.1,49.0,29.95,WNW,288,8.0,10.0,69,0.00,,---,0.00,VWS V14.01,2013-10-01 13:58:00,
2013-10-01 07:00:00,59.1,49.0,29.95,West,260,9.0,19.0,69,0.00,,---,0.00,VWS V14.01,2013-10-01 14:00:00,
2013-10-01 07:03:00,59.1,49.0,29.95,WSW,249,8.0,14.0,69,0.00,,---,0.00,VWS V14.01,2013-10-01 14:03:00,
2013-10-01 07:08:00,59.2,49.0,29.95,West,263,6.0,18.0,69,0.00,,---,0.00,VWS V14.01,2013-10-01 14:08:00,
2013-10-01 07:13:00,59.5,49.3,29.94,WSW,256,5.0,18.0,69,0.00,,---,0.00,VWS V14.01,2013-10-01 14:13:00,
2013-10-01 07:19:00,59.7,49.1,29.95,West,267,5.0,18.0,68,0.00,,---,0.00,VWS V14.01,2013-10-01 14:19:00,
2013-10-01 07:24:00,59.8,49.2,29.95,WSW,240,7.0,18.0,68,0.00,,---,0.00,VWS V14.01,2013-10-01 14:24:00,
2013-10-01 07:29:00,60.0,49.4,29.95,West,274,10.0,13.0,68,0.00,,---,0.00,VWS V14.01,2013-10-01 14:29:00,
2013-10-01 07:30:00,59.9,49.3,29.95,West,280,11.0,18.0,68,0.00,,---,0.00,VWS V14.01,2013-10-01 14:30:00,
2013-10-01 07:34:00,60.4,49.4,29.95,SW,225,12.0,16.0,67,0.00,,---,0.00,VWS V14.01,2013-10-01 14:34:00,
2013-10-01 07:39:00,60.8,49.8,29.95,West,263,11.0,16.0,67,0.00,,---,0.00,VWS V14.01,2013-10-01 14:39:00,
2013-10-01 07:44:00,61.2,49.8,29.95,SW,231,5.0,16.0,66,0.00,,---,0.00,VWS V14.01,2013-10-01 14:44:00,
2013-10-01 07:48:00,61.5,49.6,29.95,West,264,6.0,16.0,65,0.00,,---,0.00,VWS V14.01,2013-10-01 14:48:00,
2013-10-01 07:54:00,61.8,49.5,29.95,West,267,9.0,16.0,64,0.00,,---,0.00,VWS V14.01,2013-10-01 14:54:00,
2013-10-01 07:59:00,62.3,49.6,29.95,West,262,8.0,14.0,63,0.00,,---,0.00,VWS V14.01,2013-10-01 14:59:00,
2013-10-01 08:00:00,62.2,49.9,29.95,WSW,255,12.0,16.0,64,0.00,,---,0.00,VWS V14.01,2013-10-01 15:00:00,
2013-10-01 08:03:00,62.8,49.6,29.95,WSW,248,4.0,16.0,62,0.00,,---,0.00,VWS V14.01,2013-10-01 15:03:00,
2013-10-01 08:08:00,63.3,50.1,29.95,West,267,12.0,19.0,62,0.00,,---,0.00,VWS V14.01,2013-10-01 15:08:00,
2013-10-01 08:14:00,63.8,49.7,29.96,WNW,283,5.0,19.0,60,0.00,,---,0.00,VWS V14.01,2013-10-01 15:14:00,
2013-10-01 08:19:00,64.2,50.0,29.96,WSW,245,9.0,19.0,60,0.00,,---,0.00,VWS V14.01,2013-10-01 15:19:00,
2013-10-01 08:24:00,64.5,49.9,29.95,West,280,5.0,19.0,59,0.00,,---,0.00,VWS V14.01,2013-10-01 15:24:00,
2013-10-01 08:29:00,64.9,49.8,29.96,West,278,9.0,12.0,58,0.00,,---,0.00,VWS V14.01,2013-10-01 15:29:00,
2013-10-01 08:30:00,64.9,50.2,29.96,SW,224,8.0,20.0,59,0.00,,---,0.00,VWS V14.01,2013-10-01 15:30:00,
2013-10-01 08:34:00,65.3,49.7,29.96,WNW,283,10.0,14.0,57,0.00,,---,0.00,VWS V14.01,2013-10-01 15:34:00,
2013-10-01 08:39:00,65.7,49.6,29.96,West,269,6.0,17.0,56,0.00,,---,0.00,VWS V14.01,2013-10-01 15:39:00,
2013-10-01 08:44:00,66.2,50.1,29.96,West,262,8.0,17.0,56,0.00,,---,0.00,VWS V14.01,2013-10-01 15:44:00,
2013-10-01 08:49:00,66.7,49.5,29.96,West,276,7.0,17.0,54,0.00,,---,0.00,VWS V14.01,2013-10-01 15:49:00,
2013-10-01 08:54:00,67.2,49.0,29.96,WNW,289,9.0,18.0,52,0.00,,---,0.00,VWS V14.01,2013-10-01 15:54:00,
2013-10-01 08:59:00,67.5,49.3,29.96,SW,235,8.0,19.0,52,0.00,,---,0.00,VWS V14.01,2013-10-01 15:59:00,
2013-10-01 09:00:00,67.4,48.7,29.96,WSW,257,10.0,18.0,51,0.00,,---,0.00,VWS V14.01,2013-10-01 16:00:00,
2013-10-01 09:05:00,67.8,49.0,29.96,SW,229,9.0,19.0,51,0.00,,---,0.00,VWS V14.01,2013-10-01 16:05:00,
2013-10-01 09:10:00,68.2,48.9,29.96,WSW,252,6.0,19.0,50,0.00,,---,0.00,VWS V14.01,2013-10-01 16:10:00,
2013-10-01 09:15:00,68.6,48.2,29.96,NNW,328,12.0,19.0,48,0.00,,---,0.00,VWS V14.01,2013-10-01 16:15:00,
2013-10-01 09:20:00,69.0,48.0,29.96,WNW,301,11.0,19.0,47,0.00,,---,0.00,VWS V14.01,2013-10-01 16:20:00,
2013-10-01 09:24:00,69.5,47.8,29.96,West,274,7.0,19.0,46,0.00,,---,0.00,VWS V14.01,2013-10-01 16:24:00,
2013-10-01 09:30:00,70.1,47.2,29.96,WNW,300,7.0,18.0,44,0.00,,---,0.00,VWS V14.01,2013-10-01 16:30:00,
2013-10-01 09:31:00,70.2,47.3,29.96,WNW,291,10.0,18.0,44,0.00,,---,0.00,VWS V14.01,2013-10-01 16:31:00,
2013-10-01 09:36:00,70.4,48.1,29.96,West,259,14.0,18.0,45,0.00,,---,0.00,VWS V14.01,2013-10-01 16:36:00,
2013-10-01 09:41:00,70.7,47.1,29.96,South,189,9.0,19.0,43,0.00,,---,0.00,VWS V14.01,2013-10-01 16:41:00,
2013-10-01 09:46:00,70.9,47.9,29.96,WNW,290,12.0,19.0,44,0.00,,---,0.00,VWS V14.01,2013-10-01 16:46:00,
2013-10-01 09:51:00,71.1,48.1,29.96,SSE,165,6.0,19.0,44,0.00,,---,0.00,VWS V14.01,2013-10-01 16:51:00,
2013-10-01 09:56:00,71.4,47.8,29.95,WNW,285,7.0,19.0,43,0.00,,---,0.00,VWS V14.01,2013-10-01 16:56:00,
2013-10-01 10:00:00,71.7,47.4,29.95,WNW,294,4.0,19.0,42,0.00,,---,0.00,VWS V14.01,2013-10-01 17:00:00,
2013-10-01 10:01:00,72.0,48.3,29.95,WNW,283,7.0,13.0,43,0.00,,---,0.00,VWS V14.01,2013-10-01 17:01:00,
2013-10-01 10:06:00,72.0,48.3,29.95,SW,229,13.0,14.0,43,0.00,,---,0.00,VWS V14.01,2013-10-01 17:06:00,
2013-10-01 10:11:00,72.6,48.2,29.95,WSW,249,8.0,15.0,42,0.00,,---,0.00,VWS V14.01,2013-10-01 17:11:00,
2013-10-01 10:16:00,73.0,47.9,29.95,West,274,6.0,17.0,41,0.00,,---,0.00,VWS V14.01,2013-10-01 17:16:00,
2013-10-01 10:21:00,73.3,47.5,29.95,West,274,7.0,18.0,40,0.00,,---,0.00,VWS V14.01,2013-10-01 17:21:00,
2013-10-01 10:26:00,73.6,47.8,29.95,West,273,16.0,18.0,40,0.00,,---,0.00,VWS V14.01,2013-10-01 17:26:00,
2013-10-01 10:30:00,73.6,47.8,29.95,WNW,289,7.0,18.0,40,0.00,,---,0.00,VWS V14.01,2013-10-01 17:30:00,
2013-10-01 10:31:00,74.0,48.2,29.95,West,278,9.0,15.0,40,0.00,,---,0.00,VWS V14.01,2013-10-01 17:31:00,
2013-10-01 10:36:00,74.2,47.7,29.95,West,267,10.0,15.0,39,0.00,,---,0.00,VWS V14.01,2013-10-01 17:36:00,
2013-10-01 10:41:00,74.8,48.2,29.95,West,267,11.0,18.0,39,0.00,,---,0.00,VWS V14.01,2013-10-01 17:41:00,
2013-10-01 10:46:00,75.4,48.0,29.95,West,264,11.0,18.0,38,0.00,,---,0.00,VWS V14.01,2013-10-01 17:46:00,
2013-10-01 10:51:00,76.1,48.0,29.95,West,262,10.0,18.0,37,0.00,,---,0.00,VWS V14.01,2013-10-01 17:51:00,
2013-10-01 10:56:00,76.3,47.4,29.95,WNW,291,5.0,18.0,36,0.00,,---,0.00,VWS V14.01,2013-10-01 17:56:00,
2013-10-01 11:00:00,76.4,47.5,29.95,NNW,333,9.0,18.0,36,0.00,,---,0.00,VWS V14.01,2013-10-01 18:00:00,
2013-10-01 11:01:00,76.4,48.2,29.95,WSW,255,6.0,17.0,37,0.00,,---,0.00,VWS V14.01,2013-10-01 18:01:00,
2013-10-01 11:06:00,76.3,47.4,29.95,WNW,285,8.0,19.0,36,0.00,,---,0.00,VWS V14.01,2013-10-01 18:06:00,
2013-10-01 11:11:00,76.6,47.7,29.95,WSW,248,7.0,19.0,36,0.00,,---,0.00,VWS V14.01,2013-10-01 18:11:00,
2013-10-01 11:16:00,76.5,47.6,29.95,WNW,285,8.0,19.0,36,0.00,,---,0.00,VWS V14.01,2013-10-01 18:16:00,
2013-10-01 11:21:00,76.4,48.2,29.95,West,271,7.0,19.0,37,0.00,,---,0.00,VWS V14.01,2013-10-01 18:21:00,
2013-10-01 11:26:00,76.3,48.8,29.95,West,271,7.0,19.0,38,0.00,,---,0.00,VWS V14.01,2013-10-01 18:26:00,
2013-10-01 11:30:00,76.3,48.8,29.95,WSW,238,11.0,19.0,38,0.00,,---,0.00,VWS V14.01,2013-10-01 18:30:00,
2013-10-01 11:31:00,76.3,48.8,29.95,WSW,252,9.0,13.0,38,0.00,,---,0.00,VWS V14.01,2013-10-01 18:31:00,
2013-10-01 11:36:00,76.6,48.4,29.95,WNW,288,5.0,14.0,37,0.00,,---,0.00,VWS V14.01,2013-10-01 18:36:00,
2013-10-01 11:41:00,77.0,48.8,29.95,WNW,283,7.0,14.0,37,0.00,,---,0.00,VWS V14.01,2013-10-01 18:41:00,
2013-10-01 11:46:00,77.4,47.6,29.95,West,276,9.0,14.0,35,0.00,,---,0.00,VWS V14.01,2013-10-01 18:46:00,
2013-10-01 11:51:00,78.0,48.9,29.95,West,266,14.0,18.0,36,0.00,,---,0.00,VWS V14.01,2013-10-01 18:51:00,
2013-10-01 11:56:00,78.2,47.6,29.95,WSW,253,4.0,18.0,34,0.00,,---,0.00,VWS V14.01,2013-10-01 18:56:00,
2013-10-01 12:00:00,78.3,47.7,29.95,SW,230,6.0,18.0,34,0.00,,---,0.00,VWS V14.01,2013-10-01 19:00:00,
2013-10-01 12:01:00,78.3,47.7,29.95,West,267,6.0,12.0,34,0.00,,---,0.00,VWS V14.01,2013-10-01 19:01:00,
2013-10-01 12:06:00,78.8,48.1,29.95,West,266,6.0,12.0,34,0.00,,---,0.00,VWS V14.01,2013-10-01 19:06:00,
2013-10-01 12:11:00,78.9,46.6,29.95,WSW,247,13.0,14.0,32,0.00,,---,0.00,VWS V14.01,2013-10-01 19:11:00,
2013-10-01 12:16:00,79.3,47.7,29.95,WSW,257,6.0,14.0,33,0.00,,---,0.00,VWS V14.01,2013-10-01 19:16:00,
2013-10-01 12:21:00,79.4,47.0,29.95,NW,322,3.0,14.0,32,0.00,,---,0.00,VWS V14.01,2013-10-01 19:21:00,
2013-10-01 12:26:00,79.4,47.0,29.95,West,277,5.0,14.0,32,0.00,,---,0.00,VWS V14.01,2013-10-01 19:26:00,
2013-10-01 12:30:00,79.5,47.1,29.95,WNW,294,7.0,14.0,32,0.00,,---,0.00,VWS V14.01,2013-10-01 19:30:00,
2013-10-01 12:31:00,79.5,46.2,29.95,WNW,283,15.0,15.0,31,0.00,,---,0.00,VWS V14.01,2013-10-01 19:31:00,
2013-10-01 12:36:00,79.6,47.2,29.95,WNW,293,5.0,15.0,32,0.00,,---,0.00,VWS V14.01,2013-10-01 19:36:00,
2013-10-01 12:41:00,79.9,47.4,29.94,West,278,6.0,15.0,32,0.00,,---,0.00,VWS V14.01,2013-10-01 19:41:00,
2013-10-01 12:46:00,80.5,46.2,29.94,West,262,8.0,15.0,30,0.00,,---,0.00,VWS V14.01,2013-10-01 19:46:00,
2013-10-01 12:51:00,80.3,46.9,29.94,NW,323,4.0,15.0,31,0.00,,---,0.00,VWS V14.01,2013-10-01 19:51:00,
2013-10-01 12:56:00,80.3,46.9,29.94,SW,226,5.0,15.0,31,0.00,,---,0.00,VWS V14.01,2013-10-01 19:56:00,
2013-10-01 13:00:00,80.5,47.1,29.94,WSW,243,3.0,15.0,31,0.00,,---,0.00,VWS V14.01,2013-10-01 20:00:00,
2013-10-01 13:01:00,81.1,47.6,29.94,WNW,283,7.0,11.0,31,0.00,,---,0.00,VWS V14.01,2013-10-01 20:01:00,
2013-10-01 13:06:00,81.1,47.6,29.94,NW,305,10.0,15.0,31,0.00,,---,0.00,VWS V14.01,2013-10-01 20:06:00,
2013-10-01 13:11:00,80.7,47.3,29.94,NW,305,10.0,15.0,31,0.00,,---,0.00,VWS V14.01,2013-10-01 20:11:00,
2013-10-01 13:16:00,80.7,48.1,29.93,SW,224,4.0,15.0,32,0.00,,---,0.00,VWS V14.01,2013-10-01 20:16:00,
2013-10-01 13:21:00,80.6,47.2,29.93,WSW,247,3.0,15.0,31,0.00,,---,0.00,VWS V14.01,2013-10-01 20:21:00,
2013-10-01 13:26:00,80.9,47.5,29.93,SW,228,6.0,15.0,31,0.00,,---,0.00,VWS V14.01,2013-10-01 20:26:00,
2013-10-01 13:30:00,81.1,47.6,29.93,West,271,5.0,15.0,31,0.00,,---,0.00,VWS V14.01,2013-10-01 20:30:00,
2013-10-01 13:31:00,81.0,45.8,29.93,West,263,6.0,13.0,29,0.00,,---,0.00,VWS V14.01,2013-10-01 20:31:00,
2013-10-01 13:36:00,80.8,47.4,29.93,WNW,283,3.0,17.0,31,0.00,,---,0.00,VWS V14.01,2013-10-01 20:36:00,
2013-10-01 13:41:00,81.3,47.8,29.92,West,264,7.0,17.0,31,0.00,,---,0.00,VWS V14.01,2013-10-01 20:41:00,
2013-10-01 13:46:00,81.8,48.2,29.92,West,263,9.0,17.0,31,0.00,,---,0.00,VWS V14.01,2013-10-01 20:46:00,
2013-10-01 13:51:00,81.9,48.3,29.92,WNW,284,6.0,18.0,31,0.00,,---,0.00,VWS V14.01,2013-10-01 20:51:00,
2013-10-01 13:56:00,81.7,47.3,29.92,WNW,285,14.0,18.0,30,0.00,,---,0.00,VWS V14.01,2013-10-01 20:56:00,
2013-10-01 14:00:00,81.6,47.2,29.92,West,278,7.0,18.0,30,0.00,,---,0.00,VWS V14.01,2013-10-01 21:00:00,
2013-10-01 14:01:00,81.6,47.2,29.93,WNW,283,7.0,15.0,30,0.00,,---,0.00,VWS V14.01,2013-10-01 21:01:00,
2013-10-01 14:06:00,81.7,47.3,29.92,WSW,248,8.0,15.0,30,0.00,,---,0.00,VWS V14.01,2013-10-01 21:06:00,
2013-10-01 14:11:00,81.9,47.5,29.92,West,276,15.0,15.0,30,0.00,,---,0.00,VWS V14.01,2013-10-01 21:11:00,
2013-10-01 14:16:00,81.4,47.0,29.92,West,269,7.0,15.0,30,0.00,,---,0.00,VWS V14.01,2013-10-01 21:16:00,
2013-10-01 14:21:00,81.1,47.6,29.92,WSW,250,5.0,15.0,31,0.00,,---,0.00,VWS V14.01,2013-10-01 21:21:00,
2013-10-01 14:26:00,81.2,47.7,29.92,West,278,12.0,15.0,31,0.00,,---,0.00,VWS V14.01,2013-10-01 21:26:00,
2013-10-01 14:30:00,81.2,47.7,29.92,West,279,3.0,15.0,31,0.00,,---,0.00,VWS V14.01,2013-10-01 21:30:00,
2013-10-01 14:31:00,81.1,46.8,29.92,West,266,8.0,12.0,30,0.00,,---,0.00,VWS V14.01,2013-10-01 21:31:00,
2013-10-01 14:36:00,80.7,47.3,29.92,NW,316,7.0,14.0,31,0.00,,---,0.00,VWS V14.01,2013-10-01 21:36:00,
2013-10-01 14:41:00,80.7,46.4,29.92,West,274,7.0,15.0,30,0.00,,---,0.00,VWS V14.01,2013-10-01 21:41:00,
2013-10-01 14:46:00,80.8,45.6,29.92,NW,314,12.0,15.0,29,0.00,,---,0.00,VWS V14.01,2013-10-01 21:46:00,
2013-10-01 14:51:00,80.8,45.6,29.92,NNW,329,9.0,15.0,29,0.00,,---,0.00,VWS V14.01,2013-10-01 21:51:00,
2013-10-01 14:56:00,80.8,43.7,29.92,NW,308,10.0,15.0,27,0.00,,---,0.00,VWS V14.01,2013-10-01 21:56:00,
2013-10-01 15:00:00,80.8,44.7,29.92,WNW,294,8.0,15.0,28,0.00,,---,0.00,VWS V14.01,2013-10-01 22:00:00,
2013-10-01 15:01:00,80.7,45.5,29.92,NW,309,7.0,15.0,29,0.00,,---,0.00,VWS V14.01,2013-10-01 22:01:00,
2013-10-01 15:06:00,81.0,44.9,29.92,WNW,284,14.0,15.0,28,0.00,,---,0.00,VWS V14.01,2013-10-01 22:06:00,
2013-10-01 15:11:00,81.1,44.9,29.92,NW,312,11.0,15.0,28,0.00,,---,0.00,VWS V14.01,2013-10-01 22:11:00,
2013-10-01 15:16:00,80.7,43.7,29.92,NW,321,8.0,15.0,27,0.00,,---,0.00,VWS V14.01,2013-10-01 22:16:00,
2013-10-01 15:21:00,80.6,45.4,29.91,WNW,287,6.0,15.0,29,0.00,,---,0.00,VWS V14.01,2013-10-01 22:21:00,
2013-10-01 15:26:00,80.6,43.6,29.91,WNW,294,9.0,15.0,27,0.00,,---,0.00,VWS V14.01,2013-10-01 22:26:00,
2013-10-01 15:30:00,80.5,43.5,29.91,NW,326,5.0,15.0,27,0.00,,---,0.00,VWS V14.01,2013-10-01 22:30:00,
2013-10-01 15:31:00,80.1,43.1,29.91,West,278,7.0,15.0,27,0.00,,---,0.00,VWS V14.01,2013-10-01 22:31:00,
2013-10-01 15:36:00,80.2,44.2,29.91,WSW,249,13.0,15.0,28,0.00,,---,0.00,VWS V14.01,2013-10-01 22:36:00,
2013-10-01 15:41:00,80.2,44.2,29.91,WNW,302,7.0,15.0,28,0.00,,---,0.00,VWS V14.01,2013-10-01 22:41:00,
2013-10-01 15:46:00,80.0,44.0,29.91,WNW,297,12.0,15.0,28,0.00,,---,0.00,VWS V14.01,2013-10-01 22:46:00,
2013-10-01 15:51:00,79.3,43.4,29.91,NW,315,12.0,16.0,28,0.00,,---,0.00,VWS V14.01,2013-10-01 22:51:00,
2013-10-01 15:56:00,79.2,43.3,29.91,WNW,300,12.0,16.0,28,0.00,,---,0.00,VWS V14.01,2013-10-01 22:56:00,
2013-10-01 16:00:00,79.2,43.3,29.91,NW,325,8.0,16.0,28,0.00,,---,0.00,VWS V14.01,2013-10-01 23:00:00,
2013-10-01 16:01:00,79.2,43.3,29.91,West,259,7.0,16.0,28,0.00,,---,0.00,VWS V14.01,2013-10-01 23:01:00,
2013-10-01 16:06:00,78.6,43.7,29.91,WNW,288,9.0,16.0,29,0.00,,---,0.00,VWS V14.01,2013-10-01 23:06:00,
2013-10-01 16:11:00,78.1,44.2,29.91,WNW,300,6.0,16.0,30,0.00,,---,0.00,VWS V14.01,2013-10-01 23:11:00,
2013-10-01 16:16:00,77.6,43.7,29.91,NW,312,16.0,16.0,30,0.00,,---,0.00,VWS V14.01,2013-10-01 23:16:00,
2013-10-01 16:20:00,77.5,44.5,29.91,WNW,293,9.0,16.0,31,0.00,,---,0.00,VWS V14.01,2013-10-01 23:20:00,
2013-10-01 16:25:00,77.1,43.3,29.91,NW,309,10.0,19.0,30,0.00,,---,0.00,VWS V14.01,2013-10-01 23:25:00,
2013-10-01 16:30:00,76.9,44.8,29.91,NW,305,9.0,18.0,32,0.00,,---,0.00,VWS V14.01,2013-10-01 23:30:00,
2013-10-01 16:35:00,76.8,43.9,29.91,WNW,287,9.0,18.0,31,0.00,,---,0.00,VWS V14.01,2013-10-01 23:35:00,
2013-10-01 16:40:00,76.5,43.7,29.91,WNW,285,9.0,19.0,31,0.00,,---,0.00,VWS V14.01,2013-10-01 23:40:00,
2013-10-01 16:45:00,76.0,44.0,29.91,WSW,246,12.0,19.0,32,0.00,,---,0.00,VWS V14.01,2013-10-01 23:45:00,
2013-10-01 16:50:00,76.0,42.4,29.91,NW,319,9.0,19.0,30,0.00,,---,0.00,VWS V14.01,2013-10-01 23:50:00,
2013-10-01 16:55:00,75.6,44.5,29.91,WNW,300,10.0,19.0,33,0.00,,---,0.00,VWS V14.01,2013-10-01 23:55:00,
2013-10-01 17:00:00,75.2,43.3,29.91,NW,317,11.0,18.0,32,0.00,,---,0.00,VWS V14.01,2013-10-02 00:00:00,
2013-10-01 17:05:00,75.1,42.4,29.90,NW,326,14.0,18.0,31,0.00,,---,0.00,VWS V14.01,2013-10-02 00:05:00,
2013-10-01 17:10:00,74.9,43.1,29.91,WNW,291,12.0,18.0,32,0.00,,---,0.00,VWS V14.01,2013-10-02 00:10:00,
2013-10-01 17:15:00,74.7,44.5,29.91,WNW,297,14.0,19.0,34,0.00,,---,0.00,VWS V14.01,2013-10-02 00:15:00,
2013-10-01 17:17:00,74.6,43.6,29.91,NW,308,13.0,19.0,33,0.00,,---,0.00,VWS V14.01,2013-10-02 00:17:00,
2013-10-01 17:22:00,74.3,43.4,29.91,NW,312,16.0,19.0,33,0.00,,---,0.00,VWS V14.01,2013-10-02 00:22:00,
2013-10-01 17:27:00,73.9,44.5,29.91,West,277,10.0,19.0,35,0.00,,---,0.00,VWS V14.01,2013-10-02 00:27:00,
2013-10-01 17:30:00,73.9,43.0,29.91,NW,307,13.0,19.0,33,0.00,,---,0.00,VWS V14.01,2013-10-02 00:30:00,
2013-10-01 17:32:00,73.7,45.1,29.91,NW,316,9.0,17.0,36,0.00,,---,0.00,VWS V14.01,2013-10-02 00:32:00,
2013-10-01 17:37:00,73.4,44.1,29.91,WNW,300,7.0,18.0,35,0.00,,---,0.00,VWS V14.01,2013-10-02 00:37:00,
2013-10-01 17:42:00,73.0,45.9,29.91,NW,305,9.0,18.0,38,0.00,,---,0.00,VWS V14.01,2013-10-02 00:42:00,
2013-10-01 17:47:00,72.8,45.7,29.91,WNW,302,7.0,18.0,38,0.00,,---,0.00,VWS V14.01,2013-10-02 00:47:00,
2013-10-01 17:52:00,72.5,44.1,29.91,West,276,11.0,18.0,36,0.00,,---,0.00,VWS V14.01,2013-10-02 00:52:00,
2013-10-01 17:57:00,72.2,43.8,29.91,WNW,290,7.0,18.0,36,0.00,,---,0.00,VWS V14.01,2013-10-02 00:57:00,
2013-10-01 18:00:00,72.0,44.3,29.91,West,280,11.0,18.0,37,0.00,,---,0.00,VWS V14.01,2013-10-02 01:00:00,
2013-10-01 18:02:00,71.6,45.4,29.91,WNW,293,6.0,13.0,39,0.00,,---,0.00,VWS V14.01,2013-10-02 01:02:00,
2013-10-01 18:07:00,71.0,46.1,29.91,NNW,338,6.0,13.0,41,0.00,,---,0.00,VWS V14.01,2013-10-02 01:07:00,
2013-10-01 18:12:00,70.6,46.4,29.92,NW,308,6.0,14.0,42,0.00,,---,0.00,VWS V14.01,2013-10-02 01:12:00,
2013-10-01 18:17:00,70.1,48.4,29.91,NNW,335,10.0,14.0,46,0.00,,---,0.00,VWS V14.01,2013-10-02 01:17:00,
2013-10-01 18:22:00,69.7,49.2,29.92,WNW,302,11.0,17.0,48,0.00,,---,0.00,VWS V14.01,2013-10-02 01:22:00,
2013-10-01 18:27:00,69.3,50.4,29.92,West,266,7.0,17.0,51,0.00,,---,0.00,VWS V14.01,2013-10-02 01:27:00,
2013-10-01 18:30:00,69.2,49.8,29.92,WNW,295,5.0,17.0,50,0.00,,---,0.00,VWS V14.01,2013-10-02 01:30:00,
2013-10-01 18:32:00,68.9,50.6,29.92,WNW,293,8.0,12.0,52,0.00,,---,0.00,VWS V14.01,2013-10-02 01:32:00,
2013-10-01 18:37:00,68.5,50.7,29.92,West,262,8.0,13.0,53,0.00,,---,0.00,VWS V14.01,2013-10-02 01:37:00,
2013-10-01 18:42:00,68.3,51.0,29.92,NW,305,6.0,16.0,54,0.00,,---,0.00,VWS V14.01,2013-10-02 01:42:00,
2013-10-01 18:47:00,67.8,51.1,29.92,NW,322,3.0,16.0,55,0.00,,---,0.00,VWS V14.01,2013-10-02 01:47:00,
2013-10-01 18:52:00,67.4,51.2,29.92,NW,325,7.0,16.0,56,0.00,,---,0.00,VWS V14.01,2013-10-02 01:52:00,
2013-10-01 18:57:00,67.0,50.8,29.92,WSW,245,2.0,16.0,56,0.00,,---,0.00,VWS V14.01,2013-10-02 01:57:00,
2013-10-01 19:00:00,67.0,51.3,29.92,SW,226,3.0,16.0,57,0.00,,---,0.00,VWS V14.01,2013-10-02 02:00:00,
2013-10-01 19:02:00,66.8,51.6,29.92,SW,235,2.0,11.0,58,0.00,,---,0.00,VWS V14.01,2013-10-02 02:02:00,
2013-10-01 19:07:00,66.6,51.4,29.92,West,281,7.0,11.0,58,0.00,,---,0.00,VWS V14.01,2013-10-02 02:07:00,
2013-10-01 19:12:00,66.4,51.7,29.92,WSW,245,7.0,11.0,59,0.00,,---,0.00,VWS V14.01,2013-10-02 02:12:00,
2013-10-01 19:18:00,66.3,52.0,29.93,NW,326,7.0,11.0,60,0.00,,---,0.00,VWS V14.01,2013-10-02 02:18:00,
2013-10-01 19:23:00,66.4,51.7,29.92,NW,307,8.0,15.0,59,0.00,,---,0.00,VWS V14.01,2013-10-02 02:23:00,
2013-10-01 19:28:00,66.5,51.8,29.93,WSW,257,5.0,11.0,59,0.00,,---,0.00,VWS V14.01,2013-10-02 02:28:00,
2013-10-01 19:30:00,66.4,51.7,29.92,NW,322,6.0,15.0,59,0.00,,---,0.00,VWS V14.01,2013-10-02 02:30:00,
2013-10-01 19:33:00,66.5,51.8,29.93,WNW,283,4.0,11.0,59,0.00,,---,0.00,VWS V14.01,2013-10-02 02:33:00,
2013-10-01 19:38:00,66.3,52.0,29.93,West,264,5.0,12.0,60,0.00,,---,0.00,VWS V14.01,2013-10-02 02:38:00,
2013-10-01 19:43:00,66.2,51.9,29.93,WNW,295,9.0,12.0,60,0.00,,---,0.00,VWS V14.01,2013-10-02 02:43:00,
2013-10-01 19:48:00,65.8,51.5,29.93,West,267,8.0,12.0,60,0.00,,---,0.00,VWS V14.01,2013-10-02 02:48:00,
2013-10-01 19:53:00,65.6,51.8,29.93,WNW,286,5.0,12.0,61,0.00,,---,0.00,VWS V14.01,2013-10-02 02:53:00,
2013-10-01 19:58:00,65.4,51.6,29.93,West,267,7.0,7.0,61,0.00,,---,0.00,VWS V14.01,2013-10-02 02:58:00,
2013-10-01 20:00:00,65.4,51.6,29.93,West,277,7.0,12.0,61,0.00,,---,0.00,VWS V14.01,2013-10-02 03:00:00,
2013-10-01 20:03:00,65.4,51.6,29.93,West,277,5.0,12.0,61,0.00,,---,0.00,VWS V14.01,2013-10-02 03:03:00,
2013-10-01 20:08:00,65.3,51.5,29.94,WSW,255,4.0,12.0,61,0.00,,---,0.00,VWS V14.01,2013-10-02 03:08:00,
2013-10-01 20:13:00,65.1,51.3,29.94,SW,232,4.0,12.0,61,0.00,,---,0.00,VWS V14.01,2013-10-02 03:13:00,
2013-10-01 20:18:00,65.1,51.8,29.94,NNW,336,4.0,12.0,62,0.00,,---,0.00,VWS V14.01,2013-10-02 03:18:00,
2013-10-01 20:23:00,65.1,51.8,29.94,West,273,5.0,12.0,62,0.00,,---,0.00,VWS V14.01,2013-10-02 03:23:00,
2013-10-01 20:28:00,65.0,51.7,29.94,West,269,5.0,8.0,62,0.00,,---,0.00,VWS V14.01,2013-10-02 03:28:00,
2013-10-01 20:30:00,65.0,51.7,29.94,West,266,6.0,12.0,62,0.00,,---,0.00,VWS V14.01,2013-10-02 03:30:00,
2013-10-01 20:33:00,65.2,51.4,29.94,WNW,283,4.0,12.0,61,0.00,,---,0.00,VWS V14.01,2013-10-02 03:33:00,
2013-10-01 20:38:00,65.2,51.4,29.94,WSW,256,7.0,12.0,61,0.00,,---,0.00,VWS V14.01,2013-10-02 03:38:00,
2013-10-01 20:43:00,65.3,51.5,29.94,West,262,8.0,12.0,61,0.00,,---,0.00,VWS V14.01,2013-10-02 03:43:00,
2013-10-01 20:48:00,65.3,51.1,29.94,WSW,252,3.0,14.0,60,0.00,,---,0.00,VWS V14.01,2013-10-02 03:48:00,
2013-10-01 20:53:00,64.6,51.3,29.94,SW,214,6.0,14.0,62,0.00,,---,0.00,VWS V14.01,2013-10-02 03:53:00,
2013-10-01 20:58:00,64.4,51.1,29.94,WNW,296,5.0,5.0,62,0.00,,---,0.00,VWS V14.01,2013-10-02 03:58:00,
2013-10-01 21:00:00,64.4,51.1,29.94,WNW,283,5.0,14.0,62,0.00,,---,0.00,VWS V14.01,2013-10-02 04:00:00,
2013-10-01 21:01:00,64.4,51.1,29.94,WSW,251,4.0,12.0,62,0.00,,---,0.00,VWS V14.01,2013-10-02 04:01:00,
2013-10-01 21:02:00,64.4,51.1,29.94,WSW,258,7.0,12.0,62,0.00,,---,0.00,VWS V14.01,2013-10-02 04:02:00,
2013-10-01 21:07:00,64.2,50.9,29.95,West,271,2.0,12.0,62,0.00,,---,0.00,VWS V14.01,2013-10-02 04:07:00,
2013-10-01 21:12:00,63.9,51.1,29.95,WSW,248,7.0,12.0,63,0.00,,---,0.00,VWS V14.01,2013-10-02 04:12:00,
2013-10-01 21:17:00,63.6,51.2,29.94,WSW,252,9.0,12.0,64,0.00,,---,0.00,VWS V14.01,2013-10-02 04:17:00,
2013-10-01 21:22:00,63.9,51.1,29.95,WSW,244,6.0,12.0,63,0.00,,---,0.00,VWS V14.01,2013-10-02 04:22:00,
2013-10-01 21:27:00,63.9,51.1,29.94,SSW,193,5.0,12.0,63,0.00,,---,0.00,VWS V14.01,2013-10-02 04:27:00,
2013-10-01 21:30:00,63.9,51.1,29.94,West,263,11.0,12.0,63,0.00,,---,0.00,VWS V14.01,2013-10-02 04:30:00,
2013-10-01 21:32:00,64.0,51.2,29.94,WSW,242,7.0,12.0,63,0.00,,---,0.00,VWS V14.01,2013-10-02 04:32:00,
2013-10-01 21:37:00,64.1,51.3,29.95,WSW,252,10.0,12.0,63,0.00,,---,0.00,VWS V14.01,2013-10-02 04:37:00,
2013-10-01 21:42:00,63.9,51.1,29.94,WSW,246,5.0,12.0,63,0.00,,---,0.00,VWS V14.01,2013-10-02 04:42:00,
2013-10-01 21:47:00,63.8,51.0,29.95,WSW,243,4.0,12.0,63,0.00,,---,0.00,VWS V14.01,2013-10-02 04:47:00,
2013-10-01 21:52:00,63.6,50.8,29.94,WSW,250,5.0,12.0,63,0.00,,---,0.00,VWS V14.01,2013-10-02 04:52:00,
2013-10-01 21:57:00,63.4,51.0,29.94,West,266,5.0,12.0,64,0.00,,---,0.00,VWS V14.01,2013-10-02 04:57:00,
2013-10-01 22:00:00,63.3,50.9,29.94,SW,229,6.0,12.0,64,0.00,,---,0.00,VWS V14.01,2013-10-02 05:00:00,
2013-10-01 22:02:00,63.2,51.2,29.94,SW,229,3.0,10.0,65,0.00,,---,0.00,VWS V14.01,2013-10-02 05:02:00,
2013-10-01 22:07:00,63.2,51.2,29.94,WNW,288,5.0,11.0,65,0.00,,---,0.00,VWS V14.01,2013-10-02 05:07:00,
2013-10-01 22:12:00,63.2,51.2,29.94,West,276,5.0,11.0,65,0.00,,---,0.00,VWS V14.01,2013-10-02 05:12:00,
2013-10-01 22:17:00,63.1,51.2,29.94,WNW,284,4.0,11.0,65,0.00,,---,0.00,VWS V14.01,2013-10-02 05:17:00,
2013-10-01 22:22:00,62.9,51.0,29.94,WSW,247,6.0,11.0,65,0.00,,---,0.00,VWS V14.01,2013-10-02 05:22:00,
2013-10-01 22:27:00,62.9,51.4,29.94,WSW,237,6.0,11.0,66,0.00,,---,0.00,VWS V14.01,2013-10-02 05:27:00,
2013-10-01 22:30:00,62.9,51.4,29.94,West,266,5.0,11.0,66,0.00,,---,0.00,VWS V14.01,2013-10-02 05:30:00,
2013-10-01 22:32:00,62.8,51.3,29.94,West,281,5.0,11.0,66,0.00,,---,0.00,VWS V14.01,2013-10-02 05:32:00,
2013-10-01 22:37:00,62.8,51.3,29.94,SW,232,6.0,11.0,66,0.00,,---,0.00,VWS V14.01,2013-10-02 05:37:00,
2013-10-01 22:42:00,62.8,51.3,29.94,WSW,246,8.0,11.0,66,0.00,,---,0.00,VWS V14.01,2013-10-02 05:42:00,
2013-10-01 22:47:00,62.6,51.1,29.94,SW,222,5.0,11.0,66,0.00,,---,0.00,VWS V14.01,2013-10-02 05:47:00,
2013-10-01 22:52:00,62.8,51.3,29.94,West,259,8.0,11.0,66,0.00,,---,0.00,VWS V14.01,2013-10-02 05:52:00,
2013-10-01 22:57:00,62.8,51.7,29.94,West,280,5.0,11.0,67,0.00,,---,0.00,VWS V14.01,2013-10-02 05:57:00,
2013-10-01 23:00:00,62.9,51.8,29.94,West,259,5.0,11.0,67,0.00,,---,0.00,VWS V14.01,2013-10-02 06:00:00,
2013-10-01 23:01:00,62.8,51.3,29.94,West,269,5.0,9.0,66,0.00,,---,0.00,VWS V14.01,2013-10-02 06:01:00,
2013-10-01 23:06:00,62.7,51.6,29.94,West,266,10.0,11.0,67,0.00,,---,0.00,VWS V14.01,2013-10-02 06:06:00,
2013-10-01 23:11:00,62.7,51.2,29.94,WNW,294,4.0,11.0,66,0.00,,---,0.00,VWS V14.01,2013-10-02 06:11:00,
2013-10-01 23:16:00,62.6,51.1,29.94,SW,217,5.0,11.0,66,0.00,,---,0.00,VWS V14.01,2013-10-02 06:16:00,
2013-10-01 23:21:00,62.6,51.5,29.94,West,264,4.0,11.0,67,0.00,,---,0.00,VWS V14.01,2013-10-02 06:21:00,
2013-10-01 23:26:00,62.7,51.6,29.94,SW,215,2.0,11.0,67,0.00,,---,0.00,VWS V14.01,2013-10-02 06:26:00,
2013-10-01 23:30:00,62.7,51.2,29.94,West,259,6.0,11.0,66,0.00,,---,0.00,VWS V14.01,2013-10-02 06:30:00,
2013-10-01 23:31:00,62.8,51.7,29.94,West,271,6.0,13.0,67,0.00,,---,0.00,VWS V14.01,2013-10-02 06:31:00,
2013-10-01 23:36:00,62.8,51.3,29.94,SW,215,6.0,13.0,66,0.00,,---,0.00,VWS V14.01,2013-10-02 06:36:00,
2013-10-01 23:41:00,62.6,51.5,29.94,West,269,4.0,13.0,67,0.00,,---,0.00,VWS V14.01,2013-10-02 06:41:00,
2013-10-01 23:46:00,62.6,51.1,29.94,West,273,5.0,13.0,66,0.00,,---,0.00,VWS V14.01,2013-10-02 06:46:00,
2013-10-01 23:51:00,62.6,51.1,29.94,SW,235,7.0,13.0,66,0.00,,---,0.00,VWS V14.01,2013-10-02 06:51:00,
2013-10-01 23:56:00,62.6,51.1,29.94,WSW,245,6.0,13.0,66,0.00,,---,0.00,VWS V14.01,2013-10-02 06:56:00,